»·PEaware :: N838JH KRNM-KSBP

N838JH :: KRNM-KSBP

FLIGHT INFORMATION

Flight Status: Arrived
Operator: Privately registered:
United States
More flights under this callsign
Pilot: Skye D. (10623)
Aircraft: BEECH AIRCRAFT SUPER KING AIR COMMUTER
(BE20)
More flights by this aircraft type
Origin: KRNM Ramona
United States
Destination: KSBP San Luis Co Regl
United States
More flights between these airports :: More routes between these airports
Route: +ROBNN V208 SXC LAX RZS MQO
File this flight plan on PilotEdge
Remarks:
Altitude:
(Current/Filed)
26,000ft
Speed:
(Current/Filed)
275kts
Departed: 28-Feb-18 08:55 AM
Arrived: 28-Feb-18 10:22 AM
Distance/Time
Traveled:
227nm/1:26
Distance/Time
To Go:
Arrived

Flight Plot

Page will automatically refresh every two minutes.

Flight plan parsing failed; only flown route is shown


Map Options




Map Legend


Flown Route
Filed Route
Departure Airport
Arrival Airport
Navaid (VOR, NDB)
Fix

Horizontal Profiles

Position Reports

Time Latitude Longitude Heading Altitude Ground
Speed
28-Feb-18 08:32 33.040165 -116.910011 281 1398ft 0kts
28-Feb-18 08:33 33.040165 -116.910011 281 1398ft 0kts
28-Feb-18 08:34 33.040165 -116.910011 281 1398ft 0kts
28-Feb-18 08:35 33.040165 -116.910011 281 1398ft 0kts
28-Feb-18 08:36 33.040165 -116.910011 281 1398ft 0kts
28-Feb-18 08:37 33.040165 -116.910011 281 1398ft 0kts
28-Feb-18 08:38 33.040165 -116.910011 281 1398ft 0kts
28-Feb-18 08:39 33.040165 -116.910011 281 1398ft 0kts
28-Feb-18 08:40 33.040165 -116.910011 281 1398ft 0kts
28-Feb-18 08:41 33.040165 -116.910011 281 1398ft 0kts
28-Feb-18 08:42 33.040165 -116.910011 281 1398ft 0kts
28-Feb-18 08:43 33.040165 -116.910011 281 1398ft 0kts
28-Feb-18 08:44 33.040165 -116.910011 281 1398ft 0kts
28-Feb-18 08:45 33.040165 -116.910011 281 1398ft 0kts
28-Feb-18 08:46 33.040165 -116.910011 281 1398ft 0kts
28-Feb-18 08:47 33.040165 -116.910011 281 1398ft 0kts
28-Feb-18 08:48 33.040165 -116.910011 281 1398ft 0kts
28-Feb-18 08:49 33.040165 -116.910011 281 1398ft 0kts
28-Feb-18 08:50 33.040165 -116.910011 281 1398ft 0kts
28-Feb-18 08:51 33.040165 -116.910011 281 1398ft 0kts
28-Feb-18 08:52 33.040165 -116.910011 281 1398ft 0kts
28-Feb-18 08:53 33.040165 -116.910011 281 1398ft 0kts
28-Feb-18 08:54 33.040165 -116.910011 281 1398ft 0kts
28-Feb-18 08:55 33.039185 -116.910019 136 1398ft 27kts
28-Feb-18 08:56 33.040328 -116.910112 261 1398ft 3kts
28-Feb-18 08:57 33.039542 -116.910218 165 1399ft 1kts
28-Feb-18 08:58 33.039059 -116.909620 100 1399ft 7kts
28-Feb-18 08:59 33.038516 -116.907433 172 1399ft 0kts
28-Feb-18 09:00 33.038516 -116.907433 172 1399ft 0kts
28-Feb-18 09:01 33.038011 -116.907548 279 1399ft 0kts
28-Feb-18 09:02 33.040083 -116.921686 281 1609ft 113kts
28-Feb-18 09:03 33.045135 -116.956753 282 2611ft 157kts
28-Feb-18 09:04 33.054777 -117.000906 294 3788ft 180kts
28-Feb-18 09:05 33.065820 -117.054756 281 5211ft 185kts
28-Feb-18 09:06 33.067865 -117.092335 280 6404ft 174kts
28-Feb-18 09:07 33.064787 -117.135143 267 7898ft 174kts
28-Feb-18 09:08 33.064201 -117.185415 279 9402ft 172kts
28-Feb-18 09:09 33.064753 -117.223499 279 10433ft 175kts
28-Feb-18 09:10 33.065012 -117.272621 279 11956ft 170kts
28-Feb-18 09:11 33.064549 -117.323722 279 13409ft 175kts
28-Feb-18 09:12 33.063757 -117.379966 279 14040ft 213kts
28-Feb-18 09:13 33.064548 -117.447408 279 14034ft 242kts
28-Feb-18 09:14 33.066082 -117.520373 279 14041ft 251kts
28-Feb-18 09:15 33.066278 -117.585267 279 15995ft 196kts
28-Feb-18 09:16 33.080335 -117.632997 302 17483ft 174kts
28-Feb-18 09:17 33.097371 -117.678920 303 18736ft 176kts
28-Feb-18 09:18 33.115565 -117.727096 303 19932ft 179kts
28-Feb-18 09:19 33.132433 -117.772019 304 21377ft 162kts
28-Feb-18 09:20 33.148762 -117.815316 304 22513ft 164kts
28-Feb-18 09:21 33.165094 -117.858758 305 23492ft 166kts
28-Feb-18 09:22 33.182305 -117.903090 314 24390ft 162kts
28-Feb-18 09:23 33.207505 -117.939194 317 25164ft 162kts
28-Feb-18 09:24 33.232136 -117.973581 318 25841ft 163kts
28-Feb-18 09:25 33.255116 -118.005314 317 26240ft 172kts
28-Feb-18 09:26 33.282445 -118.042962 317 26243ft 191kts
28-Feb-18 09:27 33.311696 -118.083348 316 26243ft 203kts
28-Feb-18 09:28 33.343953 -118.127897 316 26241ft 211kts
28-Feb-18 09:29 33.375669 -118.171727 316 26239ft 216kts
28-Feb-18 09:30 33.407991 -118.216439 316 26238ft 218kts
28-Feb-18 09:31 33.440811 -118.261775 316 26236ft 219kts
28-Feb-18 09:32 33.472786 -118.306117 315 26237ft 220kts
28-Feb-18 09:33 33.506121 -118.352441 315 26236ft 221kts
28-Feb-18 09:34 33.537230 -118.395684 315 26235ft 221kts
28-Feb-18 09:35 33.569869 -118.441097 315 26261ft 220kts
28-Feb-18 09:36 33.602353 -118.486341 315 26234ft 221kts
28-Feb-18 09:37 33.634062 -118.530557 315 26233ft 221kts
28-Feb-18 09:38 33.666690 -118.576129 315 26256ft 220kts
28-Feb-18 09:39 33.701329 -118.624564 315 26260ft 220kts
28-Feb-18 09:40 33.734406 -118.670716 315 26263ft 220kts
28-Feb-18 09:41 33.768486 -118.718117 315 26262ft 221kts
28-Feb-18 09:42 33.803039 -118.766461 314 26262ft 221kts
28-Feb-18 09:43 33.838667 -118.816643 314 26355ft 207kts
28-Feb-18 09:44 33.869992 -118.860751 314 26263ft 216kts
28-Feb-18 09:45 33.908171 -118.914522 314 26271ft 220kts
28-Feb-18 09:46 33.935856 -118.953599 314 26270ft 221kts
28-Feb-18 09:47 33.969028 -119.000479 314 26269ft 222kts
28-Feb-18 09:48 34.000899 -119.045577 314 26268ft 223kts
28-Feb-18 09:49 34.033333 -119.091516 314 26268ft 223kts
28-Feb-18 09:50 34.065953 -119.137798 314 26267ft 223kts
28-Feb-18 09:51 34.096476 -119.181150 314 26266ft 223kts
28-Feb-18 09:52 34.127741 -119.225653 314 25900ft 221kts
28-Feb-18 09:53 34.159635 -119.270978 313 25288ft 220kts
28-Feb-18 09:54 34.193270 -119.319020 313 24721ft 218kts
28-Feb-18 09:55 34.226696 -119.366761 313 24277ft 221kts
28-Feb-18 09:56 34.260619 -119.415121 313 24257ft 229kts
28-Feb-18 09:57 34.295533 -119.465118 313 24256ft 233kts
28-Feb-18 09:58 34.328821 -119.512895 313 24255ft 234kts
28-Feb-18 09:59 34.365249 -119.565251 313 24246ft 235kts
28-Feb-18 10:00 34.397966 -119.612295 313 24245ft 235kts
28-Feb-18 10:01 34.430015 -119.658410 312 24248ft 235kts
28-Feb-18 10:02 34.464969 -119.708305 312 24248ft 236kts
28-Feb-18 10:03 34.500416 -119.759311 312 24248ft 236kts
28-Feb-18 10:04 34.538457 -119.806472 316 24068ft 232kts
28-Feb-18 10:05 34.574256 -119.849014 316 23135ft 230kts
28-Feb-18 10:06 34.608614 -119.889815 316 21645ft 228kts
28-Feb-18 10:07 34.642810 -119.930444 315 20102ft 224kts
28-Feb-18 10:08 34.677317 -119.971314 314 18385ft 222kts
28-Feb-18 10:09 34.711401 -120.011989 313 16737ft 217kts
28-Feb-18 10:10 34.744899 -120.052081 313 15067ft 214kts
28-Feb-18 10:11 34.778798 -120.092576 314 13411ft 211kts
28-Feb-18 10:12 34.812216 -120.132588 315 11832ft 207kts
28-Feb-18 10:13 34.844941 -120.171746 315 10319ft 205kts
28-Feb-18 10:14 34.877020 -120.210119 316 9069ft 203kts
28-Feb-18 10:15 34.910459 -120.249400 316 9006ft 203kts
28-Feb-18 10:16 34.943899 -120.289274 315 9009ft 218kts
28-Feb-18 10:17 34.981727 -120.334783 315 7739ft 216kts
28-Feb-18 10:18 35.015960 -120.376000 315 5951ft 211kts
28-Feb-18 10:19 35.050047 -120.417080 315 4519ft 185kts
28-Feb-18 10:20 35.078812 -120.445726 324 3754ft 164kts
28-Feb-18 10:21 35.105008 -120.470021 320 3144ft 162kts
28-Feb-18 10:22 35.131161 -120.492953 326 2827ft 156kts
28-Feb-18 10:23 35.155216 -120.512927 321 2442ft 135kts
28-Feb-18 10:24 35.174793 -120.535884 312 2197ft 136kts
28-Feb-18 10:25 35.191884 -120.563797 306 1671ft 139kts
28-Feb-18 10:26 35.206719 -120.589066 309 1205ft 115kts
28-Feb-18 10:27 35.219772 -120.610111 306 787ft 101kts
28-Feb-18 10:28 35.230081 -120.628146 305 368ft 90kts
28-Feb-18 10:29 35.237655 -120.641156 351 215ft 14kts
28-Feb-18 10:30 35.237733 -120.639497 120 215ft 10kts
28-Feb-18 10:31 35.236208 -120.636919 124 215ft 8kts
28-Feb-18 10:32 35.236758 -120.636234 300 215ft 4kts
28-Feb-18 10:33 35.236662 -120.636397 173 215ft 0kts
28-Feb-18 10:34 35.236662 -120.636397 173 215ft 0kts
28-Feb-18 10:35 35.236662 -120.636397 173 215ft 0kts

Navigation Log

Ident Type
Flight plan parsing failed, navigation log unavailable